Joy M — 3FPS5 — position and weather

sailwx.info

Track history (hours):
 
Tides and Currents Weather Stations Pressure Air Temp Water Temp Dewpoint Dewpoint Depression Visibility Wind Speed Wind Dir Waves Ship Positions

Joy M

Last reported at 2017-Nov-09 05:46 UTC. Time now 2017-Nov-24 12:51 UTC.
Position N 45°40' E 036°38'.
Warning: this ship's position is 15 days out of date.

Length 144 m; draft 7.4 m.

Type: Cargo ship. MMSI: 353312000.

Date/timePositionNaut miles runAvg speedWind from/ knotsBaromVisibWave heightAir tempDewpointWater temp
2017-Nov-09 05:46N 45°40' E 036°38'3 9.7
2017-Nov-09 05:26N 45°36' E 036°37'3 0.8
2017-Nov-09 02:00N 45°34' E 036°36'2 4.3
2017-Nov-09 01:30N 45°33' E 036°39'4 8.9
2017-Nov-09 01:01N 45°29' E 036°42'4 8.6
2017-Nov-09 00:31N 45°25' E 036°41'4 8.3
2017-Nov-09 00:01N 45°21' E 036°38'4 8.4
2017-Nov-08 23:31N 45°19' E 036°33'4 8.5
2017-Nov-08 22:59N 45°17' E 036°28'4 8.5
2017-Nov-08 22:31N 45°13' E 036°28'3 5.1
2017-Nov-08 22:01N 45°10' E 036°28'4 8.1
2017-Nov-08 21:30N 45°06' E 036°30'  
Track history (hours):
 
Tides and Currents Weather Stations Pressure Air Temp Water Temp Dewpoint Dewpoint Depression Visibility Wind Speed Wind Dir Waves Ship Positions

Joy M

Last reported at 2017-Nov-09 05:46 UTC. Time now 2017-Nov-24 12:51 UTC.
Position N 45°40' E 036°38'.
Warning: this ship's position is 15 days out of date.

Length 144 m; draft 7.4 m.

Type: Cargo ship. MMSI: 353312000.

Date/timePositionNaut miles runAvg speedWind from/ knotsBaromVisibWave heightAir tempDewpointWater temp
2017-Nov-09 05:46N 45°40' E 036°38'3 9.7
2017-Nov-09 05:26N 45°36' E 036°37'3 0.8
2017-Nov-09 02:00N 45°34' E 036°36'2 4.3
2017-Nov-09 01:30N 45°33' E 036°39'4 8.9
2017-Nov-09 01:01N 45°29' E 036°42'4 8.6
2017-Nov-09 00:31N 45°25' E 036°41'4 8.3
2017-Nov-09 00:01N 45°21' E 036°38'4 8.4
2017-Nov-08 23:31N 45°19' E 036°33'4 8.5
2017-Nov-08 22:59N 45°17' E 036°28'4 8.5
2017-Nov-08 22:31N 45°13' E 036°28'3 5.1
2017-Nov-08 22:01N 45°10' E 036°28'4 8.1
2017-Nov-08 21:30N 45°06' E 036°30'  

Dump ship's entire track history